Time;durP1;ratioP1;P1;durP2;ratioP2;P2;SDS_P1;SDS_P2;PMS_P1;PMS_P2;Temp;Humidity;BMP_temperature;BMP_pressure;BME280_temperature;BME280_humidity;BME280_pressure;Samples;Min_cycle;Max_cycle;Signal;HPM_P1;HPM_P2
2022/12/02 00:00:53;;;;;;;5.13;3.20;;;;;;;2.54;100.00;94944.81;5032752;28;20684;-78
2022/12/02 00:03:22;;;;;;;4.73;3.40;;;;;;;2.20;100.00;94942.41;5034748;28;20207;-77
2022/12/02 00:05:51;;;;;;;4.97;3.80;;;;;;;2.12;100.00;94933.94;5038138;28;20874;-76
2022/12/02 00:08:20;;;;;;;5.73;3.90;;;;;;;2.34;100.00;94942.75;5036360;28;20749;-76
2022/12/02 00:10:48;;;;;;;6.23;4.10;;;;;;;2.42;100.00;94935.06;5029547;28;20195;-76
2022/12/02 00:13:21;;;;;;;7.90;4.57;;;;;;;2.55;100.00;94935.34;5034313;28;20357;-76
2022/12/02 00:15:51;;;;;;;5.60;3.97;;;;;;;2.70;100.00;94936.31;5033995;28;20261;-77
2022/12/02 00:18:18;;;;;;;7.27;4.27;;;;;;;2.80;100.00;94929.22;5040125;28;20208;-76
2022/12/02 00:20:45;;;;;;;7.93;4.40;;;;;;;2.97;100.00;94935.94;5031483;28;20203;-76
2022/12/02 00:23:12;;;;;;;6.67;4.13;;;;;;;3.04;100.00;94939.44;5038276;28;20210;-76
2022/12/02 00:25:40;;;;;;;6.40;4.30;;;;;;;3.00;100.00;94930.44;5035394;28;20198;-75
2022/12/02 00:28:06;;;;;;;7.37;4.60;;;;;;;3.12;100.00;94931.72;5043899;28;20201;-75
2022/12/02 00:30:33;;;;;;;7.80;4.80;;;;;;;3.16;100.00;94940.69;5032917;28;20210;-75
2022/12/02 00:33:01;;;;;;;8.13;4.87;;;;;;;3.14;100.00;94923.84;5037916;28;20237;-80
2022/12/02 00:35:28;;;;;;;6.93;4.67;;;;;;;3.19;100.00;94932.66;5035595;28;20245;-81
2022/12/02 00:37:55;;;;;;;4.77;3.87;;;;;;;3.26;100.00;94940.50;5039970;28;20205;-80
2022/12/02 00:40:22;;;;;;;8.53;4.47;;;;;;;3.29;100.00;94927.34;5032731;28;20202;-81
2022/12/02 00:42:48;;;;;;;9.93;4.60;;;;;;;3.15;100.00;94936.50;5034000;28;20834;-80
2022/12/02 00:48:01;;;;;;;6.23;4.80;;;;;;;2.47;100.00;94925.91;5031341;28;20263;-80
2022/12/02 00:50:28;;;;;;;8.60;5.03;;;;;;;2.50;100.00;94933.28;5040965;28;20654;-81
2022/12/02 00:52:56;;;;;;;7.10;4.97;;;;;;;2.64;100.00;94931.81;5035702;28;20202;-80
2022/12/02 00:55:23;;;;;;;8.53;4.90;;;;;;;2.75;100.00;94931.47;5030688;28;20217;-76
2022/12/02 00:57:50;;;;;;;6.87;5.20;;;;;;;2.85;100.00;94930.34;5030945;28;20202;-75
2022/12/02 01:00:17;;;;;;;7.50;4.93;;;;;;;2.97;100.00;94928.25;5036373;28;20202;-76
2022/12/02 01:02:44;;;;;;;7.57;5.10;;;;;;;3.02;100.00;94930.31;5039677;28;20195;-75
2022/12/02 01:05:12;;;;;;;7.07;4.77;;;;;;;2.99;100.00;94912.66;5030136;28;20282;-78
2022/12/02 01:07:39;;;;;;;7.17;4.93;;;;;;;3.15;100.00;94923.69;5026824;28;20210;-77
2022/12/02 01:10:07;;;;;;;7.40;5.17;;;;;;;3.26;100.00;94923.31;5030753;28;20210;-76
2022/12/02 01:12:34;;;;;;;6.97;4.80;;;;;;;3.24;100.00;94914.97;5031127;28;20197;-76
2022/12/02 01:15:01;;;;;;;6.87;4.97;;;;;;;3.26;100.00;94917.41;5037667;28;20739;-76
2022/12/02 01:17:27;;;;;;;6.50;4.60;;;;;;;3.33;100.00;94926.03;5032998;28;20594;-81
2022/12/02 01:19:54;;;;;;;7.30;4.90;;;;;;;3.37;100.00;94919.59;5033499;28;20658;-81
2022/12/02 01:22:22;;;;;;;7.97;4.60;;;;;;;3.39;100.00;94922.78;5038496;28;20206;-81
2022/12/02 01:24:49;;;;;;;6.93;4.83;;;;;;;3.44;100.00;94923.88;5035645;28;20195;-81
2022/12/02 01:27:16;;;;;;;7.33;4.60;;;;;;;3.42;100.00;94918.13;5030396;28;20202;-81
2022/12/02 01:29:43;;;;;;;6.67;5.00;;;;;;;3.44;100.00;94929.03;5040906;28;20209;-82
2022/12/02 01:32:10;;;;;;;7.17;4.83;;;;;;;3.42;100.00;94923.25;5034539;28;20253;-81
2022/12/02 01:34:36;;;;;;;9.17;5.57;;;;;;;3.13;100.00;94919.69;5034279;28;20717;-81
2022/12/02 01:37:03;;;;;;;6.90;4.80;;;;;;;2.67;100.00;94921.25;5032242;28;20237;-78
2022/12/02 01:39:31;;;;;;;9.70;5.17;;;;;;;2.42;100.00;94922.25;5031314;28;20203;-76
2022/12/02 01:41:58;;;;;;;7.30;4.73;;;;;;;2.44;100.00;94925.44;5033450;28;20201;-78
2022/12/02 01:44:25;;;;;;;10.93;6.00;;;;;;;2.31;100.00;94918.22;5034904;28;20213;-80
2022/12/02 01:46:52;;;;;;;7.97;5.27;;;;;;;2.41;100.00;94913.75;5037414;28;20190;-81
2022/12/02 01:49:20;;;;;;;8.97;5.77;;;;;;;2.54;100.00;94920.94;5035333;28;20207;-81
2022/12/02 01:51:47;;;;;;;8.77;5.57;;;;;;;2.71;100.00;94920.75;5036901;28;20202;-82
2022/12/02 01:54:14;;;;;;;10.60;6.70;;;;;;;2.75;100.00;94924.59;5033862;28;20207;-82
2022/12/02 01:56:42;;;;;;;8.50;5.50;;;;;;;2.75;100.00;94922.03;5034745;28;20226;-82
2022/12/02 01:59:14;;;;;;;9.97;5.50;;;;;;;2.62;100.00;94926.88;5031206;28;20201;-81
2022/12/02 02:01:41;;;;;;;8.53;5.87;;;;;;;2.43;100.00;94927.19;5034576;28;20198;-82
2022/12/02 02:04:09;;;;;;;7.30;5.30;;;;;;;2.43;100.00;94922.06;5034807;28;20575;-79
2022/12/02 02:06:41;;;;;;;10.47;6.23;;;;;;;2.50;100.00;94922.22;5033597;28;20203;-78
2022/12/02 02:09:07;;;;;;;9.77;6.60;;;;;;;2.35;100.00;94927.19;5036064;28;20205;-76
2022/12/02 02:11:35;;;;;;;8.83;6.50;;;;;;;2.25;100.00;94929.91;5034100;28;20901;-77
2022/12/02 02:14:05;;;;;;;9.30;5.70;;;;;;;2.42;100.00;94935.06;5038968;28;20204;-76
2022/12/02 02:16:32;;;;;;;8.90;5.50;;;;;;;2.49;100.00;94934.25;5037623;28;20245;-76
2022/12/02 02:18:59;;;;;;;9.63;6.43;;;;;;;2.45;100.00;94930.41;5036906;28;20201;-76
2022/12/02 02:21:29;;;;;;;7.87;5.63;;;;;;;2.53;100.00;94932.16;5027847;28;20206;-77
2022/12/02 02:23:57;;;;;;;8.23;5.80;;;;;;;2.60;100.00;94920.28;5033250;28;20213;-77
2022/12/02 02:26:24;;;;;;;8.50;5.00;;;;;;;2.68;100.00;94933.91;5033718;28;20187;-77
2022/12/02 02:28:51;;;;;;;7.17;5.20;;;;;;;2.62;100.00;94928.63;5037786;28;20593;-76
2022/12/02 02:31:18;;;;;;;7.27;4.90;;;;;;;2.71;100.00;94937.91;5029841;28;20190;-77
2022/12/02 02:33:46;;;;;;;6.77;4.80;;;;;;;2.74;100.00;94942.72;5029683;28;20219;-77
2022/12/02 02:36:13;;;;;;;6.10;4.57;;;;;;;2.83;100.00;94946.84;5036661;28;20240;-76
2022/12/02 02:38:40;;;;;;;5.83;4.47;;;;;;;2.73;100.00;94947.06;5032290;28;20202;-76
2022/12/02 02:41:09;;;;;;;6.97;5.10;;;;;;;2.80;100.00;94939.47;5036775;28;20197;-76
2022/12/02 02:43:38;;;;;;;6.27;4.60;;;;;;;2.89;100.00;94938.50;5028157;28;20677;-76
2022/12/02 02:46:05;;;;;;;6.30;4.80;;;;;;;2.94;100.00;94940.59;5034751;28;20202;-76
2022/12/02 02:48:34;;;;;;;6.23;4.60;;;;;;;2.98;100.00;94940.09;5030188;28;20287;-76
2022/12/02 02:51:01;;;;;;;8.10;5.10;;;;;;;3.08;100.00;94955.31;5035089;28;20894;-77
2022/12/02 02:53:29;;;;;;;7.63;5.00;;;;;;;2.95;100.00;94953.25;5035868;28;20673;-76
2022/12/02 02:55:56;;;;;;;8.83;4.90;;;;;;;2.77;100.00;94950.88;5035737;28;20198;-76
2022/12/02 02:58:26;;;;;;;8.93;5.80;;;;;;;2.69;100.00;94958.59;5032731;28;20213;-77
2022/12/02 03:00:55;;;;;;;10.03;6.20;;;;;;;2.67;100.00;94944.31;5032410;28;20195;-76
2022/12/02 03:03:26;;;;;;;12.47;6.50;;;;;;;2.78;100.00;94955.06;5038126;28;20248;-76
2022/12/02 03:05:55;;;;;;;10.57;6.90;;;;;;;2.94;100.00;94949.09;5035909;28;20312;-77
2022/12/02 03:08:23;;;;;;;9.47;6.20;;;;;;;3.08;100.00;94948.44;5029625;28;20199;-76
2022/12/02 03:10:52;;;;;;;12.73;6.43;;;;;;;3.10;100.00;94954.19;5032675;28;20197;-76
2022/12/02 03:13:19;;;;;;;6.97;5.03;;;;;;;3.15;100.00;94946.78;5035225;28;20210;-76
2022/12/02 03:15:48;;;;;;;8.53;5.50;;;;;;;3.16;100.00;94945.03;5031035;28;20203;-75
2022/12/02 03:18:15;;;;;;;6.27;5.07;;;;;;;3.25;100.00;94951.72;5028807;28;20223;-75
2022/12/02 03:20:42;;;;;;;8.00;5.53;;;;;;;3.15;100.00;94954.47;5029983;28;20195;-75
2022/12/02 03:23:09;;;;;;;7.77;5.43;;;;;;;3.09;100.00;94957.72;5031468;28;20206;-76
2022/12/02 03:25:37;;;;;;;8.57;5.83;;;;;;;3.12;100.00;94954.81;5038319;28;20286;-76
2022/12/02 03:28:05;;;;;;;8.03;5.57;;;;;;;3.18;100.00;94959.28;5039279;28;20214;-81
2022/12/02 03:30:32;;;;;;;9.63;6.67;;;;;;;3.24;100.00;94965.53;5036797;28;20210;-80
2022/12/02 03:33:01;;;;;;;11.23;6.93;;;;;;;3.31;100.00;94969.06;5035462;28;20226;-80
2022/12/02 03:35:27;;;;;;;9.93;5.47;;;;;;;3.37;100.00;94966.63;5038078;28;20203;-80
2022/12/02 03:37:54;;;;;;;10.30;6.83;;;;;;;3.44;100.00;94970.13;5039767;28;20218;-79
2022/12/02 03:40:22;;;;;;;11.50;6.67;;;;;;;3.44;100.00;94964.19;5034609;28;20267;-80
2022/12/02 03:42:49;;;;;;;11.57;7.40;;;;;;;3.49;100.00;94969.63;5035217;28;20890;-80
2022/12/02 03:45:16;;;;;;;11.27;7.50;;;;;;;3.56;100.00;94969.75;5043537;28;20198;-80
2022/12/02 03:47:43;;;;;;;11.30;7.53;;;;;;;3.47;100.00;94966.41;5037733;28;20207;-80
2022/12/02 03:50:12;;;;;;;9.37;6.20;;;;;;;3.55;100.00;94975.88;5036416;28;20199;-80
2022/12/02 03:52:40;;;;;;;11.47;6.37;;;;;;;3.49;100.00;94972.22;5040532;28;20194;-80
2022/12/02 03:55:08;;;;;;;11.23;5.80;;;;;;;3.45;100.00;94973.50;5032660;28;20661;-80
2022/12/02 03:57:35;;;;;;;9.07;5.87;;;;;;;3.47;100.00;94971.56;5035885;28;20222;-81
2022/12/02 04:00:04;;;;;;;9.63;6.43;;;;;;;3.49;100.00;94974.78;5038066;28;20293;-81
2022/12/02 04:02:31;;;;;;;8.10;5.70;;;;;;;3.46;100.00;94974.31;5034051;28;20198;-78
2022/12/02 04:04:58;;;;;;;8.53;6.00;;;;;;;3.48;100.00;94973.16;5037374;28;20214;-78
2022/12/02 04:07:26;;;;;;;8.90;5.80;;;;;;;3.48;100.00;94968.03;5040914;28;20669;-82
2022/12/02 04:09:53;;;;;;;10.93;6.27;;;;;;;3.54;100.00;94985.34;5048287;28;20220;-83
2022/12/02 04:12:20;;;;;;;13.40;7.27;;;;;;;3.48;100.00;94975.72;5041196;28;20191;-82
2022/12/02 04:14:47;;;;;;;13.03;8.13;;;;;;;3.42;100.00;94990.03;5038654;28;20195;-79
2022/12/02 04:17:14;;;;;;;14.07;7.90;;;;;;;3.29;100.00;94986.41;5033464;28;20219;-77
2022/12/02 04:19:41;;;;;;;14.77;8.53;;;;;;;3.19;100.00;94986.59;5035857;28;20215;-79
2022/12/02 04:22:07;;;;;;;14.03;8.33;;;;;;;3.08;100.00;94992.06;5038332;28;20202;-77
2022/12/02 04:24:35;;;;;;;15.47;8.63;;;;;;;2.87;100.00;94989.19;5036223;28;20210;-77
2022/12/02 04:27:02;;;;;;;14.40;8.57;;;;;;;2.68;100.00;94985.22;5032546;28;20202;-77
2022/12/02 04:29:29;;;;;;;16.13;9.30;;;;;;;2.50;100.00;94981.22;5042674;28;20209;-77
2022/12/02 04:31:56;;;;;;;18.03;9.57;;;;;;;2.49;100.00;94989.84;5034115;28;20205;-78
2022/12/02 04:34:23;;;;;;;19.70;9.80;;;;;;;2.45;100.00;94973.22;5033883;28;20226;-78
2022/12/02 04:36:49;;;;;;;23.07;12.37;;;;;;;2.43;100.00;94980.25;5031088;28;20218;-77
2022/12/02 04:39:16;;;;;;;28.33;15.57;;;;;;;2.51;100.00;94990.53;5033828;28;20246;-77
2022/12/02 04:41:44;;;;;;;24.67;15.43;;;;;;;2.64;100.00;94991.63;5041726;28;20199;-77
2022/12/02 04:44:11;;;;;;;26.00;14.23;;;;;;;2.71;100.00;94984.88;5032765;28;20199;-80
2022/12/02 04:46:38;;;;;;;21.23;12.07;;;;;;;2.80;100.00;94983.09;5031201;28;20198;-78
2022/12/02 04:49:05;;;;;;;18.67;11.37;;;;;;;2.84;100.00;94985.19;5032116;28;20206;-76
2022/12/02 04:51:32;;;;;;;26.83;12.73;;;;;;;2.90;100.00;94983.75;5038534;28;20261;-76
2022/12/02 04:53:59;;;;;;;25.80;12.93;;;;;;;2.99;100.00;94992.22;5041480;28;20213;-76
2022/12/02 04:56:25;;;;;;;28.53;13.50;;;;;;;3.00;100.00;94986.94;5032434;28;20202;-80
2022/12/02 04:58:54;;;;;;;23.77;11.97;;;;;;;3.07;100.00;94990.44;5031773;28;20210;-82
2022/12/02 05:01:20;;;;;;;24.57;12.57;;;;;;;3.20;100.00;94995.88;5034898;28;20265;-82
2022/12/02 05:03:47;;;;;;;25.37;13.20;;;;;;;3.25;100.00;94996.19;5032896;28;20284;-82
2022/12/02 05:06:14;;;;;;;26.03;12.57;;;;;;;3.28;100.00;94998.44;5035445;28;20263;-83
2022/12/02 05:08:41;;;;;;;34.73;16.07;;;;;;;3.32;100.00;95001.44;5033977;28;20669;-83
2022/12/02 05:11:08;;;;;;;38.53;19.70;;;;;;;3.34;100.00;94997.78;5040532;28;20202;-82
2022/12/02 05:13:35;;;;;;;38.83;20.63;;;;;;;3.35;100.00;95001.94;5034789;28;20211;-81
2022/12/02 05:16:03;;;;;;;42.30;22.23;;;;;;;3.39;100.00;94994.69;5036156;28;20282;-82
2022/12/02 05:18:30;;;;;;;41.53;20.47;;;;;;;3.41;100.00;95001.28;5031222;28;20226;-81
2022/12/02 05:20:57;;;;;;;46.27;22.50;;;;;;;3.39;100.00;94997.28;5035964;28;20199;-80
2022/12/02 05:23:24;;;;;;;47.00;22.27;;;;;;;3.41;100.00;94998.69;5034263;28;20198;-79
2022/12/02 05:25:50;;;;;;;45.23;22.30;;;;;;;3.40;100.00;95006.59;5036571;28;20617;-78
2022/12/02 05:28:17;;;;;;;50.50;24.10;;;;;;;3.46;100.00;95005.13;5039756;28;20311;-78
2022/12/02 05:30:44;;;;;;;53.20;23.37;;;;;;;3.47;100.00;95007.50;5042590;28;20210;-79
2022/12/02 05:33:12;;;;;;;45.43;21.03;;;;;;;3.39;100.00;95005.78;5033419;28;20705;-81
2022/12/02 05:35:39;;;;;;;53.47;22.43;;;;;;;3.42;100.00;95004.66;5031885;28;20206;-80
2022/12/02 05:38:06;;;;;;;49.23;23.10;;;;;;;3.43;100.00;95013.97;5037586;28;20242;-80
2022/12/02 05:40:33;;;;;;;45.03;21.43;;;;;;;3.34;100.00;95009.81;5033460;28;20203;-80
2022/12/02 05:43:18;;;;;;;49.00;21.87;;;;;;;3.36;100.00;95013.00;5032598;28;20210;-81
2022/12/02 05:45:46;;;;;;;44.33;20.77;;;;;;;3.44;100.00;95018.13;5033321;28;20202;-83
2022/12/02 05:48:17;;;;;;;40.63;19.43;;;;;;;3.38;100.00;95017.00;5034504;28;20207;-82
2022/12/02 05:50:45;;;;;;;44.70;22.13;;;;;;;3.40;100.00;95025.38;5035732;28;20199;-82
2022/12/02 05:53:21;;;;;;;51.63;24.00;;;;;;;3.49;100.00;95031.28;5029582;28;20198;-77
2022/12/02 05:55:49;;;;;;;50.80;24.20;;;;;;;3.40;100.00;95029.72;5033643;28;20269;-77
2022/12/02 05:58:17;;;;;;;58.53;29.83;;;;;;;3.41;100.00;95029.53;5021331;28;20222;-75
2022/12/02 06:00:44;;;;;;;60.50;30.57;;;;;;;3.45;100.00;95030.00;5027572;28;20226;-78
2022/12/02 06:03:21;;;;;;;54.80;27.73;;;;;;;3.52;100.00;95032.72;5030242;28;20210;-76
2022/12/02 06:05:49;;;;;;;59.00;27.77;;;;;;;3.51;100.00;95033.69;5023897;28;20664;-77
2022/12/02 06:08:19;;;;;;;63.30;29.10;;;;;;;3.59;100.00;95036.22;5030585;28;20194;-76
2022/12/02 06:10:48;;;;;;;65.03;29.20;;;;;;;3.57;100.00;95038.97;5030225;28;20213;-77
2022/12/02 06:13:20;;;;;;;63.00;30.93;;;;;;;3.59;100.00;95049.06;5031441;28;20218;-77
2022/12/02 06:15:47;;;;;;;64.73;29.37;;;;;;;3.64;100.00;95052.75;5026446;28;20187;-76
2022/12/02 06:18:15;;;;;;;56.60;26.60;;;;;;;3.64;100.00;95049.38;5028239;28;20249;-77
2022/12/02 06:20:45;;;;;;;51.37;24.23;;;;;;;3.71;100.00;95055.44;5032206;28;20195;-76
2022/12/02 06:23:15;;;;;;;33.43;16.43;;;;;;;3.64;100.00;95055.31;5028288;28;20205;-77
2022/12/02 06:25:44;;;;;;;29.00;13.50;;;;;;;3.70;100.00;95046.94;5034264;28;20199;-76
2022/12/02 06:28:23;;;;;;;25.17;13.13;;;;;;;3.79;100.00;95058.00;5035781;28;20666;-76
2022/12/02 06:30:50;;;;;;;24.73;13.37;;;;;;;3.71;100.00;95045.97;5031198;28;20186;-78
2022/12/02 06:33:25;;;;;;;22.30;12.23;;;;;;;3.79;100.00;95058.00;5034358;28;20222;-78
2022/12/02 06:35:54;;;;;;;25.00;11.97;;;;;;;3.78;100.00;95061.53;5032815;28;20797;-77
2022/12/02 06:38:28;;;;;;;23.73;12.27;;;;;;;3.81;100.00;95069.69;5031955;28;20229;-77
2022/12/02 06:40:55;;;;;;;24.57;13.13;;;;;;;3.79;100.00;95060.56;5031016;28;20241;-81
2022/12/02 06:43:26;;;;;;;18.07;9.77;;;;;;;3.71;100.00;95066.53;5028821;28;20273;-81
2022/12/02 06:45:53;;;;;;;11.87;7.63;;;;;;;3.84;100.00;95064.22;5026683;28;20608;-82
2022/12/02 06:48:28;;;;;;;11.27;6.93;;;;;;;3.83;100.00;95060.06;5034818;28;20214;-82
2022/12/02 06:51:06;;;;;;;8.20;5.10;;;;;;;3.86;100.00;95057.19;5036332;28;20683;-83
2022/12/02 06:53:34;;;;;;;9.50;5.47;;;;;;;3.76;100.00;95050.59;5033152;28;20728;-83
2022/12/02 06:56:05;;;;;;;8.03;5.10;;;;;;;3.76;100.00;95066.03;5035718;28;20213;-82
2022/12/02 06:58:39;;;;;;;7.30;5.30;;;;;;;3.77;100.00;95070.22;5031835;28;20360;-84
2022/12/02 07:01:16;;;;;;;7.53;5.40;;;;;;;3.82;100.00;95073.06;5035831;28;20185;-82
2022/12/02 07:03:46;;;;;;;6.33;4.80;;;;;;;3.86;100.00;95072.59;5027119;28;20202;-82
2022/12/02 07:06:18;;;;;;;8.30;5.87;;;;;;;3.92;100.00;95073.69;5025656;28;20207;-83
2022/12/02 07:08:46;;;;;;;6.90;4.67;;;;;;;3.92;100.00;95069.38;5032431;28;20202;-83
2022/12/02 07:11:20;;;;;;;7.60;4.90;;;;;;;3.90;100.00;95070.47;5033785;28;20270;-82
2022/12/02 07:13:49;;;;;;;7.73;5.20;;;;;;;3.82;100.00;95063.59;5024821;28;20197;-81
2022/12/02 07:16:31;;;;;;;8.37;5.47;;;;;;;3.92;100.00;95078.84;5030649;28;20191;-82
2022/12/02 07:18:59;;;;;;;9.17;5.73;;;;;;;3.93;100.00;95081.22;5024835;28;20226;-82
2022/12/02 07:21:28;;;;;;;9.57;6.43;;;;;;;3.97;100.00;95082.50;5032978;28;20199;-82
2022/12/02 07:23:56;;;;;;;11.10;6.47;;;;;;;3.94;100.00;95069.19;5027328;28;20640;-82
2022/12/02 07:26:24;;;;;;;10.33;6.60;;;;;;;4.05;100.00;95076.53;5016031;28;20758;-83
2022/12/02 07:29:01;;;;;;;10.30;6.30;;;;;;;4.06;100.00;95073.00;5031536;28;20198;-81
2022/12/02 07:31:30;;;;;;;10.83;6.30;;;;;;;4.10;100.00;95076.03;5034212;28;20196;-83
2022/12/02 07:33:57;;;;;;;9.37;6.23;;;;;;;4.15;100.00;95084.84;5029279;28;20746;-81
2022/12/02 07:36:23;;;;;;;8.30;5.80;;;;;;;4.15;100.00;95077.13;5034335;28;20208;-81
2022/12/02 07:38:52;;;;;;;10.40;6.17;;;;;;;4.18;100.00;95087.09;5031113;28;20226;-83
2022/12/02 07:41:19;;;;;;;8.97;6.30;;;;;;;4.10;100.00;95096.63;5028962;28;20208;-81
2022/12/02 07:43:46;;;;;;;9.47;6.07;;;;;;;4.10;100.00;95099.19;5031893;28;20633;-77
2022/12/02 07:46:12;;;;;;;11.17;6.63;;;;;;;4.00;100.00;95094.22;5036415;28;20199;-78
2022/12/02 07:48:39;;;;;;;11.93;7.03;;;;;;;3.97;100.00;95084.28;5029300;28;20203;-77
2022/12/02 07:51:06;;;;;;;14.57;7.33;;;;;;;3.93;100.00;95094.09;5030760;28;20203;-76
2022/12/02 07:53:33;;;;;;;13.37;8.23;;;;;;;3.92;100.00;95102.78;5027524;28;20210;-76
2022/12/02 07:56:01;;;;;;;32.90;18.90;;;;;;;3.74;100.00;95101.38;5025422;28;20206;-78
2022/12/02 07:58:30;;;;;;;30.80;17.83;;;;;;;3.44;100.00;95100.31;5032785;28;20579;-77
2022/12/02 08:00:57;;;;;;;29.77;19.23;;;;;;;3.28;100.00;95084.94;5030974;28;20202;-78
2022/12/02 08:03:24;;;;;;;26.70;16.37;;;;;;;3.52;100.00;95097.72;5034773;28;20672;-76
2022/12/02 08:05:51;;;;;;;17.73;10.90;;;;;;;3.62;100.00;95098.38;5027942;28;20286;-79
2022/12/02 08:08:18;;;;;;;15.40;10.60;;;;;;;3.76;100.00;95107.97;5031048;28;20222;-78
2022/12/02 08:10:44;;;;;;;17.70;9.97;;;;;;;3.86;100.00;95094.94;5035369;28;20199;-79
2022/12/02 08:13:12;;;;;;;21.87;11.53;;;;;;;4.00;100.00;95110.47;5029367;28;20203;-79
2022/12/02 08:15:39;;;;;;;19.87;11.40;;;;;;;4.03;100.00;95096.47;5034028;28;20199;-79
2022/12/02 08:18:06;;;;;;;18.57;10.50;;;;;;;4.12;100.00;95105.75;5032836;28;20226;-78
2022/12/02 08:20:33;;;;;;;18.70;10.37;;;;;;;4.23;100.00;95109.72;5038565;28;21248;-78
2022/12/02 08:23:00;;;;;;;19.53;10.87;;;;;;;4.32;100.00;95117.25;5039935;28;20593;-78
2022/12/02 08:25:27;;;;;;;18.27;10.30;;;;;;;4.28;100.00;95110.00;5034902;28;20200;-78
2022/12/02 08:27:53;;;;;;;28.53;12.93;;;;;;;4.31;100.00;95107.91;5036990;28;20254;-78
2022/12/02 08:30:22;;;;;;;19.30;9.97;;;;;;;4.40;100.00;95111.25;5033739;28;20210;-78
2022/12/02 08:32:49;;;;;;;20.07;11.10;;;;;;;4.49;100.00;95113.63;5036640;28;20230;-78
2022/12/02 08:35:16;;;;;;;25.07;12.60;;;;;;;4.52;100.00;95118.44;5037112;28;20191;-79
2022/12/02 08:37:42;;;;;;;24.33;13.90;;;;;;;4.45;100.00;95126.97;5034236;28;20230;-83
2022/12/02 08:40:10;;;;;;;32.10;15.90;;;;;;;4.39;100.00;95119.91;5035766;28;20215;-85
2022/12/02 08:42:37;;;;;;;28.83;14.83;;;;;;;4.46;100.00;95118.28;5033900;28;20207;-77
2022/12/02 08:45:05;;;;;;;22.07;12.03;;;;;;;4.54;100.00;95116.47;5037302;28;20212;-83
2022/12/02 08:47:34;;;;;;;24.67;13.13;;;;;;;4.67;100.00;95118.50;5039020;28;20211;-80
2022/12/02 08:50:01;;;;;;;27.13;14.77;;;;;;;4.62;100.00;95122.56;5034394;28;20208;-82
2022/12/02 08:52:28;;;;;;;28.37;14.77;;;;;;;4.52;100.00;95128.72;5039069;28;20662;-81
2022/12/02 08:55:03;;;;;;;29.37;14.77;;;;;;;4.59;100.00;95129.63;5041498;28;20199;-83
2022/12/02 08:57:31;;;;;;;25.83;13.90;;;;;;;4.63;100.00;95131.88;5041619;28;20190;-82
2022/12/02 08:59:58;;;;;;;26.23;14.07;;;;;;;4.73;100.00;95124.75;5035535;28;20218;-82
2022/12/02 09:02:25;;;;;;;24.90;13.97;;;;;;;4.78;100.00;95127.59;5032322;28;20212;-83
2022/12/02 09:04:53;;;;;;;26.63;14.67;;;;;;;4.82;100.00;95124.50;5026034;28;20207;-82
2022/12/02 09:07:20;;;;;;;30.43;17.20;;;;;;;4.88;100.00;95123.81;5034625;28;20211;-83
2022/12/02 09:09:47;;;;;;;39.00;21.23;;;;;;;4.48;100.00;95118.91;5039544;28;20189;-84
2022/12/02 09:12:13;;;;;;;42.47;23.60;;;;;;;4.44;100.00;95118.44;5035992;28;20210;-83
2022/12/02 09:14:41;;;;;;;42.43;22.63;;;;;;;4.49;100.00;95123.91;5034089;28;20200;-82
2022/12/02 09:17:07;;;;;;;40.13;22.43;;;;;;;4.44;100.00;95126.16;5037861;28;20723;-80
2022/12/02 09:19:34;;;;;;;42.43;22.27;;;;;;;4.36;100.00;95121.06;5036341;28;20238;-79
2022/12/02 09:22:02;;;;;;;46.10;27.53;;;;;;;4.04;100.00;95117.84;5033294;28;20206;-79
2022/12/02 09:24:29;;;;;;;68.20;35.17;;;;;;;3.81;100.00;95115.19;5036427;28;20627;-79
2022/12/02 09:26:59;;;;;;;63.50;32.53;;;;;;;3.86;100.00;95108.59;5037148;28;20290;-80
2022/12/02 09:29:26;;;;;;;64.13;35.67;;;;;;;3.94;100.00;95103.41;5044175;28;20690;-79
2022/12/02 09:31:53;;;;;;;60.80;33.73;;;;;;;3.81;100.00;95095.41;5047911;28;20186;-77
2022/12/02 09:34:52;;;;;;;58.77;32.63;;;;;;;3.57;100.00;95082.66;5039372;28;20235;-80
2022/12/02 09:37:20;;;;;;;56.50;30.93;;;;;;;3.76;100.00;95091.72;5040242;28;20207;-78
2022/12/02 09:39:48;;;;;;;54.90;29.77;;;;;;;3.98;100.00;95107.22;5041178;28;20206;-78
2022/12/02 09:42:17;;;;;;;68.83;35.10;;;;;;;4.04;100.00;95113.47;5038563;28;20191;-79
2022/12/02 09:44:45;;;;;;;68.90;35.07;;;;;;;3.92;100.00;95109.69;5039752;28;20214;-78
2022/12/02 09:47:12;;;;;;;68.00;35.93;;;;;;;3.64;100.00;95064.78;5028119;28;20193;-78
2022/12/02 09:49:43;;;;;;;63.47;34.87;;;;;;;4.05;100.00;95109.94;5042283;28;20190;-79
2022/12/02 09:52:15;;;;;;;66.33;35.60;;;;;;;4.14;100.00;95092.72;5043372;28;20194;-79
2022/12/02 09:54:45;;;;;;;64.13;34.13;;;;;;;4.17;100.00;95097.53;5043696;28;20582;-79
2022/12/02 09:57:16;;;;;;;67.83;35.87;;;;;;;4.06;100.00;95091.00;5046098;28;20198;-80
2022/12/02 09:59:44;;;;;;;74.30;37.53;;;;;;;4.07;100.00;95090.00;5051908;28;20281;-81
2022/12/02 10:02:24;;;;;;;69.77;38.50;;;;;;;4.10;100.00;95068.31;5020731;28;20194;-81
2022/12/02 10:04:51;;;;;;;78.30;41.83;;;;;;;4.41;100.00;95094.84;5054795;28;20196;-82
2022/12/02 10:07:18;;;;;;;68.87;37.03;;;;;;;4.28;100.00;95086.84;5043952;28;20273;-80
2022/12/02 10:09:46;;;;;;;66.60;36.93;;;;;;;4.10;100.00;95084.53;5039007;28;20252;-80
2022/12/02 10:12:14;;;;;;;78.53;39.90;;;;;;;4.13;100.00;95086.00;5046432;28;20561;-80
2022/12/02 10:14:45;;;;;;;63.43;37.57;;;;;;;4.26;100.00;95089.63;5042929;28;20215;-80
2022/12/02 10:17:16;;;;;;;71.33;37.83;;;;;;;4.36;100.00;95094.53;5038722;28;20191;-82
2022/12/02 10:19:44;;;;;;;67.93;37.83;;;;;;;4.49;100.00;95084.50;5037761;28;20708;-78
2022/12/02 10:22:15;;;;;;;68.13;37.37;;;;;;;4.67;100.00;95087.63;5037922;28;20286;-84
2022/12/02 10:24:42;;;;;;;64.00;35.30;;;;;;;4.83;100.00;95081.53;5043952;28;20199;-84
2022/12/02 10:27:24;;;;;;;66.00;34.77;;;;;;;4.92;100.00;95094.19;5035475;28;20210;-78
2022/12/02 10:29:51;;;;;;;60.00;33.20;;;;;;;4.92;100.00;95085.66;5044634;28;20553;-80
2022/12/02 10:32:21;;;;;;;59.97;31.77;;;;;;;5.10;100.00;95093.91;5040661;28;20691;-79
2022/12/02 10:35:02;;;;;;;56.00;31.53;;;;;;;5.17;100.00;95084.47;5036677;28;20271;-79
2022/12/02 10:37:33;;;;;;;58.30;31.87;;;;;;;5.36;100.00;95098.66;5042770;28;20585;-77
2022/12/02 10:40:14;;;;;;;60.77;33.13;;;;;;;5.31;100.00;95095.81;5034367;28;20263;-79
2022/12/02 10:42:43;;;;;;;61.50;34.33;;;;;;;5.36;100.00;95093.50;5012387;28;20200;-80
2022/12/02 10:45:21;;;;;;;65.33;34.77;;;;;;;5.47;100.00;95087.94;5042567;28;20199;-79
2022/12/02 10:47:49;;;;;;;62.37;34.73;;;;;;;5.56;100.00;95092.03;5045189;28;20184;-79
2022/12/02 10:50:21;;;;;;;67.67;35.30;;;;;;;5.61;100.00;95093.09;5037985;28;20194;-78
2022/12/02 10:52:49;;;;;;;90.30;48.90;;;;;;;5.52;100.00;95081.28;5042586;28;20196;-78
2022/12/02 10:55:18;;;;;;;99.43;52.37;;;;;;;5.46;100.00;95081.97;5039463;28;20198;-79
2022/12/02 10:57:48;;;;;;;104.63;54.30;;;;;;;5.31;100.00;95077.78;5044032;28;20203;-77
2022/12/02 11:00:17;;;;;;;106.00;54.00;;;;;;;5.36;100.00;95083.22;5042763;28;20223;-78
2022/12/02 11:02:46;;;;;;;100.47;51.97;;;;;;;5.43;100.00;95084.91;5034106;28;20197;-80
2022/12/02 11:05:18;;;;;;;97.47;49.77;;;;;;;5.52;100.00;95086.44;5031323;28;20203;-78
2022/12/02 11:07:54;;;;;;;86.83;43.77;;;;;;;5.55;100.00;95095.56;5036488;28;20184;-80
2022/12/02 11:10:23;;;;;;;86.40;42.70;;;;;;;5.36;100.00;95093.50;5040750;28;20573;-78
2022/12/02 11:13:46;;;;;;;77.33;40.73;;;;;;;5.49;100.00;95088.53;5045475;28;20196;-79
2022/12/02 11:16:45;;;;;;;68.00;33.70;;;;;;;5.51;100.00;95092.53;5013584;28;20216;-79
2022/12/02 11:19:39;;;;;;;55.77;30.03;;;;;;;5.36;100.00;95098.66;5042111;28;20219;-80
2022/12/02 11:22:45;;;;;;;60.70;30.70;;;;;;;4.99;100.00;95095.09;5041878;28;20197;-79
2022/12/02 11:25:46;;;;;;;54.73;27.33;;;;;;;4.92;100.00;95093.38;5042226;28;20191;-79
2022/12/02 11:28:31;;;;;;;56.60;28.13;;;;;;;4.93;100.00;95098.38;5041468;28;20206;-79
2022/12/02 11:31:19;;;;;;;51.73;26.57;;;;;;;4.91;100.00;95089.19;5019500;28;20184;-78
2022/12/02 11:34:15;;;;;;;47.43;25.60;;;;;;;4.73;100.00;95091.28;5032484;28;20226;-79
2022/12/02 11:36:42;;;;;;;51.47;25.57;;;;;;;4.81;100.00;95101.50;5002627;28;20274;-81